sensor_id;sensor_type;location;lat;lon;timestamp;P1;durP1;ratioP1;P2;durP2;ratioP2
11691;SDS011;33659;42.672;23.354;2023-02-13T00:00:18;49.60;;;23.37;;
11691;SDS011;33659;42.672;23.354;2023-02-13T00:02:46;40.80;;;22.17;;
11691;SDS011;33659;42.672;23.354;2023-02-13T00:05:14;48.63;;;23.40;;
11691;SDS011;33659;42.672;23.354;2023-02-13T00:07:41;44.23;;;22.07;;
11691;SDS011;33659;42.672;23.354;2023-02-13T00:10:08;46.77;;;21.83;;
11691;SDS011;33659;42.672;23.354;2023-02-13T00:12:35;43.87;;;21.93;;
11691;SDS011;33659;42.672;23.354;2023-02-13T00:15:02;49.07;;;23.80;;
11691;SDS011;33659;42.672;23.354;2023-02-13T00:17:29;41.23;;;22.17;;
11691;SDS011;33659;42.672;23.354;2023-02-13T00:19:57;44.57;;;21.60;;
11691;SDS011;33659;42.672;23.354;2023-02-13T00:22:26;43.97;;;23.23;;
11691;SDS011;33659;42.672;23.354;2023-02-13T00:24:52;40.87;;;22.47;;
11691;SDS011;33659;42.672;23.354;2023-02-13T00:27:19;43.30;;;21.57;;
11691;SDS011;33659;42.672;23.354;2023-02-13T00:29:46;39.50;;;20.67;;
11691;SDS011;33659;42.672;23.354;2023-02-13T00:32:13;40.30;;;21.10;;
11691;SDS011;33659;42.672;23.354;2023-02-13T00:34:40;39.10;;;21.13;;
11691;SDS011;33659;42.672;23.354;2023-02-13T00:37:08;45.30;;;23.07;;
11691;SDS011;33659;42.672;23.354;2023-02-13T00:39:36;39.87;;;21.03;;
11691;SDS011;33659;42.672;23.354;2023-02-13T00:42:03;43.67;;;21.97;;
11691;SDS011;33659;42.672;23.354;2023-02-13T00:44:29;42.87;;;22.13;;
11691;SDS011;33659;42.672;23.354;2023-02-13T00:46:56;44.93;;;21.57;;
11691;SDS011;33659;42.672;23.354;2023-02-13T00:49:23;39.60;;;22.10;;
11691;SDS011;33659;42.672;23.354;2023-02-13T00:51:50;40.47;;;20.40;;
11691;SDS011;33659;42.672;23.354;2023-02-13T00:54:16;38.53;;;20.63;;
11691;SDS011;33659;42.672;23.354;2023-02-13T00:56:44;42.87;;;22.43;;
11691;SDS011;33659;42.672;23.354;2023-02-13T00:59:11;39.37;;;21.87;;
11691;SDS011;33659;42.672;23.354;2023-02-13T01:01:38;40.83;;;20.77;;
11691;SDS011;33659;42.672;23.354;2023-02-13T01:04:04;43.70;;;22.17;;
11691;SDS011;33659;42.672;23.354;2023-02-13T01:06:31;40.83;;;22.00;;
11691;SDS011;33659;42.672;23.354;2023-02-13T01:08:58;40.00;;;21.73;;
11691;SDS011;33659;42.672;23.354;2023-02-13T01:11:24;47.20;;;23.87;;
11691;SDS011;33659;42.672;23.354;2023-02-13T01:13:52;40.53;;;21.23;;
11691;SDS011;33659;42.672;23.354;2023-02-13T01:16:19;43.87;;;21.97;;
11691;SDS011;33659;42.672;23.354;2023-02-13T01:18:45;39.97;;;21.17;;
11691;SDS011;33659;42.672;23.354;2023-02-13T01:21:15;40.87;;;21.50;;
11691;SDS011;33659;42.672;23.354;2023-02-13T01:23:43;41.90;;;20.93;;
11691;SDS011;33659;42.672;23.354;2023-02-13T01:26:12;49.27;;;23.53;;
11691;SDS011;33659;42.672;23.354;2023-02-13T01:28:42;42.10;;;23.10;;
11691;SDS011;33659;42.672;23.354;2023-02-13T01:31:11;47.03;;;21.23;;
11691;SDS011;33659;42.672;23.354;2023-02-13T01:33:37;42.57;;;20.97;;
11691;SDS011;33659;42.672;23.354;2023-02-13T01:36:05;47.67;;;22.10;;
11691;SDS011;33659;42.672;23.354;2023-02-13T01:38:33;45.37;;;23.27;;
11691;SDS011;33659;42.672;23.354;2023-02-13T01:40:59;43.63;;;21.77;;
11691;SDS011;33659;42.672;23.354;2023-02-13T01:43:41;41.23;;;20.20;;
11691;SDS011;33659;42.672;23.354;2023-02-13T01:46:11;43.80;;;22.87;;
11691;SDS011;33659;42.672;23.354;2023-02-13T01:48:40;44.90;;;23.27;;
11691;SDS011;33659;42.672;23.354;2023-02-13T01:51:09;42.67;;;22.60;;
11691;SDS011;33659;42.672;23.354;2023-02-13T01:53:41;41.80;;;21.73;;
11691;SDS011;33659;42.672;23.354;2023-02-13T01:56:11;46.53;;;22.33;;
11691;SDS011;33659;42.672;23.354;2023-02-13T01:58:40;40.77;;;22.03;;
11691;SDS011;33659;42.672;23.354;2023-02-13T02:01:11;44.57;;;21.37;;
11691;SDS011;33659;42.672;23.354;2023-02-13T02:03:38;44.50;;;21.63;;
11691;SDS011;33659;42.672;23.354;2023-02-13T02:06:11;42.47;;;20.87;;
11691;SDS011;33659;42.672;23.354;2023-02-13T02:08:42;39.60;;;21.43;;
11691;SDS011;33659;42.672;23.354;2023-02-13T02:11:10;43.30;;;22.10;;
11691;SDS011;33659;42.672;23.354;2023-02-13T02:13:43;43.37;;;21.07;;
11691;SDS011;33659;42.672;23.354;2023-02-13T02:16:12;40.90;;;21.00;;
11691;SDS011;33659;42.672;23.354;2023-02-13T02:18:39;40.23;;;19.97;;
11691;SDS011;33659;42.672;23.354;2023-02-13T02:21:14;42.33;;;22.97;;
11691;SDS011;33659;42.672;23.354;2023-02-13T02:24:07;42.00;;;21.37;;
11691;SDS011;33659;42.672;23.354;2023-02-13T02:29:45;39.03;;;20.63;;
11691;SDS011;33659;42.672;23.354;2023-02-13T02:35:33;39.07;;;21.60;;
11691;SDS011;33659;42.672;23.354;2023-02-13T02:38:12;40.40;;;22.63;;
11691;SDS011;33659;42.672;23.354;2023-02-13T02:40:50;51.07;;;22.63;;
11691;SDS011;33659;42.672;23.354;2023-02-13T02:43:28;40.77;;;21.97;;
11691;SDS011;33659;42.672;23.354;2023-02-13T02:46:07;44.60;;;20.57;;
11691;SDS011;33659;42.672;23.354;2023-02-13T02:48:41;43.30;;;22.13;;
11691;SDS011;33659;42.672;23.354;2023-02-13T02:51:32;48.40;;;22.77;;
11691;SDS011;33659;42.672;23.354;2023-02-13T02:54:06;44.03;;;21.87;;
11691;SDS011;33659;42.672;23.354;2023-02-13T02:56:53;45.87;;;22.20;;
11691;SDS011;33659;42.672;23.354;2023-02-13T02:59:23;43.10;;;22.40;;
11691;SDS011;33659;42.672;23.354;2023-02-13T03:02:09;49.00;;;22.80;;
11691;SDS011;33659;42.672;23.354;2023-02-13T03:04:57;38.87;;;20.33;;
11691;SDS011;33659;42.672;23.354;2023-02-13T03:07:43;46.93;;;23.50;;
11691;SDS011;33659;42.672;23.354;2023-02-13T03:10:11;40.87;;;22.07;;
11691;SDS011;33659;42.672;23.354;2023-02-13T03:13:00;47.50;;;22.43;;
11691;SDS011;33659;42.672;23.354;2023-02-13T03:15:47;47.50;;;22.97;;
11691;SDS011;33659;42.672;23.354;2023-02-13T03:18:35;38.27;;;20.93;;
11691;SDS011;33659;42.672;23.354;2023-02-13T03:21:24;46.63;;;21.37;;
11691;SDS011;33659;42.672;23.354;2023-02-13T03:24:19;42.63;;;22.40;;
11691;SDS011;33659;42.672;23.354;2023-02-13T03:26:54;41.57;;;21.97;;
11691;SDS011;33659;42.672;23.354;2023-02-13T03:29:29;37.27;;;20.03;;
11691;SDS011;33659;42.672;23.354;2023-02-13T03:32:25;41.17;;;20.90;;
11691;SDS011;33659;42.672;23.354;2023-02-13T03:35:00;42.40;;;21.33;;
11691;SDS011;33659;42.672;23.354;2023-02-13T03:37:57;46.27;;;22.83;;
11691;SDS011;33659;42.672;23.354;2023-02-13T03:40:30;42.63;;;21.17;;
11691;SDS011;33659;42.672;23.354;2023-02-13T03:43:22;41.50;;;21.50;;
11691;SDS011;33659;42.672;23.354;2023-02-13T03:45:54;43.80;;;21.60;;
11691;SDS011;33659;42.672;23.354;2023-02-13T03:48:23;43.83;;;23.00;;
11691;SDS011;33659;42.672;23.354;2023-02-13T03:51:10;48.30;;;21.77;;
11691;SDS011;33659;42.672;23.354;2023-02-13T03:53:43;41.23;;;21.00;;
11691;SDS011;33659;42.672;23.354;2023-02-13T03:56:13;43.57;;;21.50;;
11691;SDS011;33659;42.672;23.354;2023-02-13T03:59:01;37.33;;;19.27;;
11691;SDS011;33659;42.672;23.354;2023-02-13T04:01:38;43.40;;;21.47;;
11691;SDS011;33659;42.672;23.354;2023-02-13T04:04:07;41.50;;;20.57;;
11691;SDS011;33659;42.672;23.354;2023-02-13T04:06:37;39.80;;;21.50;;
11691;SDS011;33659;42.672;23.354;2023-02-13T04:09:14;42.13;;;21.30;;
11691;SDS011;33659;42.672;23.354;2023-02-13T04:11:43;41.23;;;21.17;;
11691;SDS011;33659;42.672;23.354;2023-02-13T04:14:17;46.20;;;24.70;;
11691;SDS011;33659;42.672;23.354;2023-02-13T04:16:50;48.90;;;27.23;;
11691;SDS011;33659;42.672;23.354;2023-02-13T04:19:20;45.40;;;23.37;;
11691;SDS011;33659;42.672;23.354;2023-02-13T04:21:49;43.17;;;22.17;;
11691;SDS011;33659;42.672;23.354;2023-02-13T04:24:23;41.63;;;22.47;;
11691;SDS011;33659;42.672;23.354;2023-02-13T04:26:50;45.93;;;23.17;;
11691;SDS011;33659;42.672;23.354;2023-02-13T04:29:17;41.07;;;22.77;;
11691;SDS011;33659;42.672;23.354;2023-02-13T04:31:44;42.40;;;22.73;;
11691;SDS011;33659;42.672;23.354;2023-02-13T04:34:11;53.70;;;27.53;;
11691;SDS011;33659;42.672;23.354;2023-02-13T04:36:38;63.83;;;29.07;;
11691;SDS011;33659;42.672;23.354;2023-02-13T04:39:04;46.60;;;23.97;;
11691;SDS011;33659;42.672;23.354;2023-02-13T04:41:32;47.90;;;23.30;;
11691;SDS011;33659;42.672;23.354;2023-02-13T04:43:59;48.00;;;25.67;;
11691;SDS011;33659;42.672;23.354;2023-02-13T04:46:26;49.20;;;25.57;;
11691;SDS011;33659;42.672;23.354;2023-02-13T04:48:52;58.90;;;28.83;;
11691;SDS011;33659;42.672;23.354;2023-02-13T04:51:19;50.57;;;28.47;;
11691;SDS011;33659;42.672;23.354;2023-02-13T04:53:46;51.60;;;28.43;;
11691;SDS011;33659;42.672;23.354;2023-02-13T04:56:12;59.03;;;27.37;;
11691;SDS011;33659;42.672;23.354;2023-02-13T04:58:40;53.93;;;27.90;;
11691;SDS011;33659;42.672;23.354;2023-02-13T05:01:10;49.30;;;26.20;;
11691;SDS011;33659;42.672;23.354;2023-02-13T05:03:37;57.33;;;27.93;;
11691;SDS011;33659;42.672;23.354;2023-02-13T05:06:04;52.60;;;26.07;;
11691;SDS011;33659;42.672;23.354;2023-02-13T05:08:31;49.57;;;24.67;;
11691;SDS011;33659;42.672;23.354;2023-02-13T05:10:57;57.87;;;25.77;;
11691;SDS011;33659;42.672;23.354;2023-02-13T05:13:24;53.90;;;27.23;;
11691;SDS011;33659;42.672;23.354;2023-02-13T05:15:52;50.57;;;26.07;;
11691;SDS011;33659;42.672;23.354;2023-02-13T05:18:19;49.17;;;26.10;;
11691;SDS011;33659;42.672;23.354;2023-02-13T05:20:45;49.80;;;26.57;;
11691;SDS011;33659;42.672;23.354;2023-02-13T05:23:32;55.70;;;26.63;;
11691;SDS011;33659;42.672;23.354;2023-02-13T05:25:58;51.37;;;26.27;;
11691;SDS011;33659;42.672;23.354;2023-02-13T05:28:25;52.67;;;25.37;;
11691;SDS011;33659;42.672;23.354;2023-02-13T05:31:10;47.67;;;24.73;;
11691;SDS011;33659;42.672;23.354;2023-02-13T05:33:37;50.80;;;24.83;;
11691;SDS011;33659;42.672;23.354;2023-02-13T05:36:05;47.50;;;24.93;;
11691;SDS011;33659;42.672;23.354;2023-02-13T05:38:32;52.07;;;27.97;;
11691;SDS011;33659;42.672;23.354;2023-02-13T05:40:59;54.00;;;28.50;;
11691;SDS011;33659;42.672;23.354;2023-02-13T05:43:25;61.53;;;28.30;;
11691;SDS011;33659;42.672;23.354;2023-02-13T05:45:59;52.80;;;28.17;;
11691;SDS011;33659;42.672;23.354;2023-02-13T05:48:28;50.67;;;26.97;;
11691;SDS011;33659;42.672;23.354;2023-02-13T05:50:55;52.23;;;28.00;;
11691;SDS011;33659;42.672;23.354;2023-02-13T05:53:22;56.90;;;29.73;;
11691;SDS011;33659;42.672;23.354;2023-02-13T05:55:48;52.33;;;28.10;;
11691;SDS011;33659;42.672;23.354;2023-02-13T05:58:16;56.03;;;27.73;;
11691;SDS011;33659;42.672;23.354;2023-02-13T06:00:43;51.87;;;26.90;;
11691;SDS011;33659;42.672;23.354;2023-02-13T06:03:10;58.20;;;28.73;;
11691;SDS011;33659;42.672;23.354;2023-02-13T06:05:38;54.83;;;29.27;;
11691;SDS011;33659;42.672;23.354;2023-02-13T06:08:04;60.10;;;29.87;;
11691;SDS011;33659;42.672;23.354;2023-02-13T06:10:31;59.60;;;29.70;;
11691;SDS011;33659;42.672;23.354;2023-02-13T06:12:58;55.37;;;28.17;;
11691;SDS011;33659;42.672;23.354;2023-02-13T06:15:24;55.00;;;29.07;;
11691;SDS011;33659;42.672;23.354;2023-02-13T06:17:51;50.57;;;29.43;;
11691;SDS011;33659;42.672;23.354;2023-02-13T06:20:18;50.63;;;27.97;;
11691;SDS011;33659;42.672;23.354;2023-02-13T06:22:47;53.33;;;26.87;;
11691;SDS011;33659;42.672;23.354;2023-02-13T06:25:14;48.27;;;26.03;;
11691;SDS011;33659;42.672;23.354;2023-02-13T06:27:41;45.73;;;25.10;;
11691;SDS011;33659;42.672;23.354;2023-02-13T06:30:09;53.03;;;26.87;;
11691;SDS011;33659;42.672;23.354;2023-02-13T06:32:36;57.30;;;27.07;;
11691;SDS011;33659;42.672;23.354;2023-02-13T06:35:03;54.10;;;27.23;;
11691;SDS011;33659;42.672;23.354;2023-02-13T06:37:29;52.53;;;26.63;;
11691;SDS011;33659;42.672;23.354;2023-02-13T06:39:58;49.13;;;25.60;;
11691;SDS011;33659;42.672;23.354;2023-02-13T06:42:24;51.00;;;27.30;;
11691;SDS011;33659;42.672;23.354;2023-02-13T06:44:51;49.13;;;25.07;;
11691;SDS011;33659;42.672;23.354;2023-02-13T06:47:18;51.80;;;25.13;;
11691;SDS011;33659;42.672;23.354;2023-02-13T06:49:45;47.67;;;25.13;;
11691;SDS011;33659;42.672;23.354;2023-02-13T06:52:11;50.60;;;26.80;;
11691;SDS011;33659;42.672;23.354;2023-02-13T06:54:38;52.90;;;27.40;;
11691;SDS011;33659;42.672;23.354;2023-02-13T06:57:06;55.80;;;27.47;;
11691;SDS011;33659;42.672;23.354;2023-02-13T06:59:33;46.57;;;24.77;;
11691;SDS011;33659;42.672;23.354;2023-02-13T07:01:59;43.80;;;24.20;;
11691;SDS011;33659;42.672;23.354;2023-02-13T07:04:26;43.50;;;24.50;;
11691;SDS011;33659;42.672;23.354;2023-02-13T07:06:53;41.23;;;23.90;;
11691;SDS011;33659;42.672;23.354;2023-02-13T07:09:21;38.63;;;21.70;;
11691;SDS011;33659;42.672;23.354;2023-02-13T07:11:47;39.53;;;22.43;;
11691;SDS011;33659;42.672;23.354;2023-02-13T07:14:15;39.07;;;21.70;;
11691;SDS011;33659;42.672;23.354;2023-02-13T07:16:42;42.40;;;21.10;;
11691;SDS011;33659;42.672;23.354;2023-02-13T07:19:09;40.30;;;20.20;;
11691;SDS011;33659;42.672;23.354;2023-02-13T07:21:35;42.30;;;22.00;;
11691;SDS011;33659;42.672;23.354;2023-02-13T07:24:02;40.97;;;20.80;;
11691;SDS011;33659;42.672;23.354;2023-02-13T07:26:29;38.87;;;21.17;;
11691;SDS011;33659;42.672;23.354;2023-02-13T07:28:56;42.23;;;21.30;;
11691;SDS011;33659;42.672;23.354;2023-02-13T07:31:24;41.17;;;21.07;;
11691;SDS011;33659;42.672;23.354;2023-02-13T07:33:51;45.00;;;23.27;;
11691;SDS011;33659;42.672;23.354;2023-02-13T07:36:17;39.63;;;19.70;;
11691;SDS011;33659;42.672;23.354;2023-02-13T07:38:44;43.30;;;20.37;;
11691;SDS011;33659;42.672;23.354;2023-02-13T07:41:11;35.67;;;21.23;;
11691;SDS011;33659;42.672;23.354;2023-02-13T07:43:37;41.87;;;21.30;;
11691;SDS011;33659;42.672;23.354;2023-02-13T07:46:04;42.37;;;21.63;;
11691;SDS011;33659;42.672;23.354;2023-02-13T07:48:32;41.50;;;21.60;;
11691;SDS011;33659;42.672;23.354;2023-02-13T07:51:00;40.17;;;21.53;;
11691;SDS011;33659;42.672;23.354;2023-02-13T07:53:27;37.27;;;21.63;;
11691;SDS011;33659;42.672;23.354;2023-02-13T07:55:54;37.23;;;22.10;;
11691;SDS011;33659;42.672;23.354;2023-02-13T07:58:21;39.73;;;20.53;;
11691;SDS011;33659;42.672;23.354;2023-02-13T08:00:47;43.37;;;22.13;;
11691;SDS011;33659;42.672;23.354;2023-02-13T08:03:14;42.70;;;22.97;;
11691;SDS011;33659;42.672;23.354;2023-02-13T08:05:42;37.87;;;20.97;;
11691;SDS011;33659;42.672;23.354;2023-02-13T08:08:13;42.93;;;22.10;;
11691;SDS011;33659;42.672;23.354;2023-02-13T08:10:40;41.10;;;22.40;;
11691;SDS011;33659;42.672;23.354;2023-02-13T08:13:24;36.90;;;21.20;;
11691;SDS011;33659;42.672;23.354;2023-02-13T08:15:52;47.87;;;25.07;;
11691;SDS011;33659;42.672;23.354;2023-02-13T08:18:18;43.83;;;22.47;;
11691;SDS011;33659;42.672;23.354;2023-02-13T08:20:46;41.57;;;22.00;;
11691;SDS011;33659;42.672;23.354;2023-02-13T08:23:13;39.57;;;21.20;;
11691;SDS011;33659;42.672;23.354;2023-02-13T08:25:40;43.23;;;23.33;;
11691;SDS011;33659;42.672;23.354;2023-02-13T08:28:07;45.17;;;24.53;;
11691;SDS011;33659;42.672;23.354;2023-02-13T08:30:33;46.77;;;25.03;;
11691;SDS011;33659;42.672;23.354;2023-02-13T08:33:00;53.57;;;23.10;;
11691;SDS011;33659;42.672;23.354;2023-02-13T08:35:26;42.03;;;23.40;;
11691;SDS011;33659;42.672;23.354;2023-02-13T08:37:56;44.00;;;22.83;;
11691;SDS011;33659;42.672;23.354;2023-02-13T08:40:27;45.00;;;25.33;;
11691;SDS011;33659;42.672;23.354;2023-02-13T08:42:57;45.73;;;23.97;;
11691;SDS011;33659;42.672;23.354;2023-02-13T08:45:25;43.13;;;23.10;;
11691;SDS011;33659;42.672;23.354;2023-02-13T08:47:54;42.23;;;22.53;;
11691;SDS011;33659;42.672;23.354;2023-02-13T08:50:21;41.00;;;20.00;;
11691;SDS011;33659;42.672;23.354;2023-02-13T08:52:48;49.40;;;21.67;;
11691;SDS011;33659;42.672;23.354;2023-02-13T08:55:16;38.07;;;19.30;;
11691;SDS011;33659;42.672;23.354;2023-02-13T08:57:43;42.63;;;21.37;;
11691;SDS011;33659;42.672;23.354;2023-02-13T09:00:10;39.13;;;20.77;;
11691;SDS011;33659;42.672;23.354;2023-02-13T09:02:37;42.27;;;21.30;;
11691;SDS011;33659;42.672;23.354;2023-02-13T09:05:04;39.87;;;20.97;;
11691;SDS011;33659;42.672;23.354;2023-02-13T09:07:31;38.73;;;20.63;;
11691;SDS011;33659;42.672;23.354;2023-02-13T09:09:58;38.27;;;20.10;;
11691;SDS011;33659;42.672;23.354;2023-02-13T09:12:26;38.07;;;20.17;;
11691;SDS011;33659;42.672;23.354;2023-02-13T09:14:52;39.23;;;21.40;;
11691;SDS011;33659;42.672;23.354;2023-02-13T09:17:19;39.67;;;21.83;;
11691;SDS011;33659;42.672;23.354;2023-02-13T09:19:46;46.50;;;22.43;;
11691;SDS011;33659;42.672;23.354;2023-02-13T09:22:12;42.30;;;20.67;;
11691;SDS011;33659;42.672;23.354;2023-02-13T09:24:41;37.17;;;20.67;;
11691;SDS011;33659;42.672;23.354;2023-02-13T09:27:08;43.47;;;21.80;;
11691;SDS011;33659;42.672;23.354;2023-02-13T09:29:36;41.93;;;21.40;;
11691;SDS011;33659;42.672;23.354;2023-02-13T09:32:03;38.47;;;22.03;;
11691;SDS011;33659;42.672;23.354;2023-02-13T09:34:30;37.23;;;19.87;;
11691;SDS011;33659;42.672;23.354;2023-02-13T09:36:56;37.40;;;20.63;;
11691;SDS011;33659;42.672;23.354;2023-02-13T09:39:23;41.80;;;20.37;;
11691;SDS011;33659;42.672;23.354;2023-02-13T09:41:51;39.70;;;21.33;;
11691;SDS011;33659;42.672;23.354;2023-02-13T09:44:20;40.17;;;21.37;;
11691;SDS011;33659;42.672;23.354;2023-02-13T09:47:04;45.23;;;22.87;;
11691;SDS011;33659;42.672;23.354;2023-02-13T09:49:37;42.03;;;23.00;;
11691;SDS011;33659;42.672;23.354;2023-02-13T09:52:07;37.60;;;20.40;;
11691;SDS011;33659;42.672;23.354;2023-02-13T09:54:34;43.17;;;22.17;;
11691;SDS011;33659;42.672;23.354;2023-02-13T09:57:02;41.73;;;21.90;;
11691;SDS011;33659;42.672;23.354;2023-02-13T09:59:38;41.17;;;22.47;;
11691;SDS011;33659;42.672;23.354;2023-02-13T10:02:19;44.57;;;23.80;;
11691;SDS011;33659;42.672;23.354;2023-02-13T10:04:55;45.03;;;22.40;;
11691;SDS011;33659;42.672;23.354;2023-02-13T10:07:33;43.63;;;22.10;;
11691;SDS011;33659;42.672;23.354;2023-02-13T10:10:11;40.37;;;22.37;;
11691;SDS011;33659;42.672;23.354;2023-02-13T10:12:46;41.03;;;22.73;;
11691;SDS011;33659;42.672;23.354;2023-02-13T10:15:23;42.93;;;22.67;;
11691;SDS011;33659;42.672;23.354;2023-02-13T10:17:58;46.43;;;22.73;;
11691;SDS011;33659;42.672;23.354;2023-02-13T10:20:29;41.63;;;22.63;;
11691;SDS011;33659;42.672;23.354;2023-02-13T10:23:02;46.63;;;22.00;;
11691;SDS011;33659;42.672;23.354;2023-02-13T10:25:43;38.90;;;20.10;;
11691;SDS011;33659;42.672;23.354;2023-02-13T10:28:15;39.57;;;21.70;;
11691;SDS011;33659;42.672;23.354;2023-02-13T10:30:51;38.10;;;20.53;;
11691;SDS011;33659;42.672;23.354;2023-02-13T10:33:22;41.13;;;21.60;;
11691;SDS011;33659;42.672;23.354;2023-02-13T10:35:56;36.77;;;20.43;;
11691;SDS011;33659;42.672;23.354;2023-02-13T10:38:27;37.27;;;20.23;;
11691;SDS011;33659;42.672;23.354;2023-02-13T10:41:02;39.47;;;20.10;;
11691;SDS011;33659;42.672;23.354;2023-02-13T10:43:34;34.77;;;20.93;;
11691;SDS011;33659;42.672;23.354;2023-02-13T10:46:07;42.53;;;22.13;;
11691;SDS011;33659;42.672;23.354;2023-02-13T10:48:54;34.57;;;18.97;;
11691;SDS011;33659;42.672;23.354;2023-02-13T10:51:34;38.33;;;20.00;;
11691;SDS011;33659;42.672;23.354;2023-02-13T10:54:15;34.93;;;19.67;;
11691;SDS011;33659;42.672;23.354;2023-02-13T10:56:51;37.43;;;21.93;;
11691;SDS011;33659;42.672;23.354;2023-02-13T10:59:29;34.30;;;19.57;;
11691;SDS011;33659;42.672;23.354;2023-02-13T11:02:16;35.47;;;19.53;;
11691;SDS011;33659;42.672;23.354;2023-02-13T11:04:49;33.17;;;18.23;;
11691;SDS011;33659;42.672;23.354;2023-02-13T11:07:18;29.73;;;17.83;;
11691;SDS011;33659;42.672;23.354;2023-02-13T11:09:48;31.87;;;18.63;;
11691;SDS011;33659;42.672;23.354;2023-02-13T11:12:22;33.77;;;19.13;;
11691;SDS011;33659;42.672;23.354;2023-02-13T11:14:52;35.90;;;19.20;;
11691;SDS011;33659;42.672;23.354;2023-02-13T11:17:20;30.03;;;17.07;;
11691;SDS011;33659;42.672;23.354;2023-02-13T11:19:50;32.53;;;17.07;;
11691;SDS011;33659;42.672;23.354;2023-02-13T11:22:27;30.37;;;19.03;;
11691;SDS011;33659;42.672;23.354;2023-02-13T11:24:58;34.40;;;18.50;;
11691;SDS011;33659;42.672;23.354;2023-02-13T11:27:29;28.93;;;16.70;;
11691;SDS011;33659;42.672;23.354;2023-02-13T11:29:59;29.27;;;17.43;;
11691;SDS011;33659;42.672;23.354;2023-02-13T11:32:28;32.97;;;16.93;;
11691;SDS011;33659;42.672;23.354;2023-02-13T11:34:56;26.50;;;16.57;;
11691;SDS011;33659;42.672;23.354;2023-02-13T11:37:41;31.23;;;18.17;;
11691;SDS011;33659;42.672;23.354;2023-02-13T11:40:27;32.23;;;19.17;;
11691;SDS011;33659;42.672;23.354;2023-02-13T11:42:56;30.33;;;17.60;;
11691;SDS011;33659;42.672;23.354;2023-02-13T11:45:23;28.23;;;15.50;;
11691;SDS011;33659;42.672;23.354;2023-02-13T11:47:51;31.73;;;16.47;;
11691;SDS011;33659;42.672;23.354;2023-02-13T11:50:22;28.90;;;15.67;;
11691;SDS011;33659;42.672;23.354;2023-02-13T11:52:53;30.83;;;15.57;;
11691;SDS011;33659;42.672;23.354;2023-02-13T11:55:27;23.67;;;14.67;;
11691;SDS011;33659;42.672;23.354;2023-02-13T11:57:56;25.03;;;14.33;;
11691;SDS011;33659;42.672;23.354;2023-02-13T12:00:28;25.17;;;13.97;;
11691;SDS011;33659;42.672;23.354;2023-02-13T12:03:01;23.07;;;14.03;;
11691;SDS011;33659;42.672;23.354;2023-02-13T12:06:00;22.80;;;13.07;;
11691;SDS011;33659;42.672;23.354;2023-02-13T12:08:29;17.87;;;11.97;;
11691;SDS011;33659;42.672;23.354;2023-02-13T12:10:56;20.13;;;12.97;;
11691;SDS011;33659;42.672;23.354;2023-02-13T12:13:25;19.53;;;12.60;;
11691;SDS011;33659;42.672;23.354;2023-02-13T12:15:57;21.17;;;11.37;;
11691;SDS011;33659;42.672;23.354;2023-02-13T12:18:27;19.20;;;11.40;;
11691;SDS011;33659;42.672;23.354;2023-02-13T12:20:59;16.73;;;11.43;;
11691;SDS011;33659;42.672;23.354;2023-02-13T12:23:37;22.70;;;13.25;;
11691;SDS011;33659;42.672;23.354;2023-02-13T12:26:12;20.73;;;11.93;;
11691;SDS011;33659;42.672;23.354;2023-02-13T12:28:56;19.57;;;11.47;;
11691;SDS011;33659;42.672;23.354;2023-02-13T12:31:38;17.87;;;11.60;;
11691;SDS011;33659;42.672;23.354;2023-02-13T12:34:43;17.83;;;11.37;;
11691;SDS011;33659;42.672;23.354;2023-02-13T12:40:22;17.73;;;9.83;;
11691;SDS011;33659;42.672;23.354;2023-02-13T12:43:09;15.60;;;10.30;;
11691;SDS011;33659;42.672;23.354;2023-02-13T12:45:52;16.80;;;10.23;;
11691;SDS011;33659;42.672;23.354;2023-02-13T12:48:27;16.52;;;9.15;;
11691;SDS011;33659;42.672;23.354;2023-02-13T12:51:07;13.67;;;8.83;;
11691;SDS011;33659;42.672;23.354;2023-02-13T12:59:30;12.05;;;7.65;;
11691;SDS011;33659;42.672;23.354;2023-02-13T13:05:15;14.88;;;9.40;;
11691;SDS011;33659;42.672;23.354;2023-02-13T13:08:01;14.43;;;8.98;;
11691;SDS011;33659;42.672;23.354;2023-02-13T13:10:46;13.48;;;8.82;;
11691;SDS011;33659;42.672;23.354;2023-02-13T13:13:24;12.77;;;9.02;;
11691;SDS011;33659;42.672;23.354;2023-02-13T13:16:00;13.45;;;8.95;;
11691;SDS011;33659;42.672;23.354;2023-02-13T13:18:38;14.35;;;8.80;;
11691;SDS011;33659;42.672;23.354;2023-02-13T13:21:16;13.55;;;9.02;;
11691;SDS011;33659;42.672;23.354;2023-02-13T13:23:53;14.02;;;9.02;;
11691;SDS011;33659;42.672;23.354;2023-02-13T13:26:29;12.77;;;8.57;;
11691;SDS011;33659;42.672;23.354;2023-02-13T13:29:02;13.93;;;8.73;;
11691;SDS011;33659;42.672;23.354;2023-02-13T13:31:33;15.73;;;8.25;;
11691;SDS011;33659;42.672;23.354;2023-02-13T13:34:02;12.93;;;8.75;;
11691;SDS011;33659;42.672;23.354;2023-02-13T13:36:34;14.30;;;7.95;;
11691;SDS011;33659;42.672;23.354;2023-02-13T13:39:13;11.77;;;8.70;;
11691;SDS011;33659;42.672;23.354;2023-02-13T13:41:49;11.50;;;7.97;;
11691;SDS011;33659;42.672;23.354;2023-02-13T13:44:34;12.45;;;8.25;;
11691;SDS011;33659;42.672;23.354;2023-02-13T13:47:14;12.05;;;8.15;;
11691;SDS011;33659;42.672;23.354;2023-02-13T13:49:50;12.75;;;7.95;;
11691;SDS011;33659;42.672;23.354;2023-02-13T13:52:21;15.93;;;8.30;;
11691;SDS011;33659;42.672;23.354;2023-02-13T13:54:49;14.02;;;8.82;;
11691;SDS011;33659;42.672;23.354;2023-02-13T13:57:19;13.48;;;8.27;;
11691;SDS011;33659;42.672;23.354;2023-02-13T14:05:57;13.00;;;8.70;;
11691;SDS011;33659;42.672;23.354;2023-02-13T14:11:31;14.00;;;8.77;;
11691;SDS011;33659;42.672;23.354;2023-02-13T14:20:32;14.00;;;8.37;;
11691;SDS011;33659;42.672;23.354;2023-02-13T14:23:13;14.30;;;8.57;;
11691;SDS011;33659;42.672;23.354;2023-02-13T14:25:46;14.33;;;8.93;;
11691;SDS011;33659;42.672;23.354;2023-02-13T14:28:17;15.00;;;9.33;;
11691;SDS011;33659;42.672;23.354;2023-02-13T14:30:48;15.63;;;9.07;;
11691;SDS011;33659;42.672;23.354;2023-02-13T14:33:24;14.60;;;9.70;;
11691;SDS011;33659;42.672;23.354;2023-02-13T14:35:58;13.10;;;8.77;;
11691;SDS011;33659;42.672;23.354;2023-02-13T14:38:27;13.87;;;9.27;;
11691;SDS011;33659;42.672;23.354;2023-02-13T14:40:55;13.80;;;9.20;;
11691;SDS011;33659;42.672;23.354;2023-02-13T14:43:32;15.53;;;9.00;;
11691;SDS011;33659;42.672;23.354;2023-02-13T14:46:08;17.33;;;10.57;;
11691;SDS011;33659;42.672;23.354;2023-02-13T14:48:50;16.13;;;10.03;;
11691;SDS011;33659;42.672;23.354;2023-02-13T14:51:23;15.30;;;10.27;;
11691;SDS011;33659;42.672;23.354;2023-02-13T14:53:58;16.00;;;8.90;;
11691;SDS011;33659;42.672;23.354;2023-02-13T14:56:30;14.50;;;8.67;;
11691;SDS011;33659;42.672;23.354;2023-02-13T14:59:00;16.00;;;9.53;;
11691;SDS011;33659;42.672;23.354;2023-02-13T15:01:36;12.53;;;8.47;;
11691;SDS011;33659;42.672;23.354;2023-02-13T15:04:11;13.27;;;8.97;;
11691;SDS011;33659;42.672;23.354;2023-02-13T15:06:43;14.90;;;9.20;;
11691;SDS011;33659;42.672;23.354;2023-02-13T15:09:15;14.60;;;9.40;;